Time;durP1;ratioP1;P1;durP2;ratioP2;P2;SDS_P1;SDS_P2;PMS_P1;PMS_P2;Temp;Humidity;BMP_temperature;BMP_pressure;BME280_temperature;BME280_humidity;BME280_pressure;Samples;Min_cycle;Max_cycle;Signal;HPM_P1;HPM_P2
2022/04/29 00:03:59;;;;;;;15.98;7.80;;;;;;;9.21;86.60;102861.22;6337002;22;20521;-76
2022/04/29 00:06:26;;;;;;;11.30;7.20;;;;;;;9.18;86.68;102861.53;6309195;22;20007;-76
2022/04/29 00:08:51;;;;;;;11.65;6.85;;;;;;;9.13;86.43;102853.16;6329745;22;20017;-76
2022/04/29 00:14:38;;;;;;;12.40;6.55;;;;;;;9.04;86.41;102854.94;6330234;22;20107;-76
2022/04/29 00:17:05;;;;;;;15.27;6.85;;;;;;;9.00;86.71;102843.75;6336724;22;20381;-76
2022/04/29 00:19:32;;;;;;;12.57;6.65;;;;;;;8.98;87.36;102855.56;6336598;22;20060;-76
2022/04/29 00:21:58;;;;;;;12.70;6.68;;;;;;;8.94;87.23;102856.84;6329807;22;20072;-76
2022/04/29 00:24:23;;;;;;;13.32;6.43;;;;;;;8.91;87.60;102863.31;6336900;22;20007;-76
2022/04/29 00:26:49;;;;;;;13.10;6.30;;;;;;;8.90;87.47;102860.81;6329823;22;20011;-76
2022/04/29 00:29:15;;;;;;;9.02;6.00;;;;;;;8.84;87.66;102854.25;6336601;22;20009;-75
2022/04/29 00:35:03;;;;;;;14.40;6.40;;;;;;;8.79;87.66;102853.88;6336693;22;20025;-76
2022/04/29 00:37:30;;;;;;;12.52;6.53;;;;;;;8.73;88.08;102843.00;6309264;22;20014;-77
2022/04/29 00:39:55;;;;;;;14.43;6.75;;;;;;;8.78;88.35;102849.53;6329985;22;20136;-76
2022/04/29 00:42:21;;;;;;;10.75;6.50;;;;;;;8.73;88.75;102853.66;6336570;22;20398;-76
2022/04/29 00:44:47;;;;;;;12.00;6.88;;;;;;;8.68;88.79;102846.13;6333969;22;20007;-76
2022/04/29 00:47:15;;;;;;;10.55;7.07;;;;;;;8.67;88.97;102849.75;6303230;22;20090;-76
2022/04/29 00:49:41;;;;;;;11.00;6.78;;;;;;;8.61;88.75;102840.53;6336298;22;20007;-75
2022/04/29 00:55:30;;;;;;;17.13;6.57;;;;;;;8.56;89.12;102841.97;6336927;22;20025;-76
2022/04/29 00:58:06;;;;;;;14.20;8.23;;;;;;;8.53;88.36;102837.78;6329665;22;20485;-76
2022/04/29 01:00:31;;;;;;;14.10;6.60;;;;;;;8.47;88.46;102837.56;6309085;22;20045;-76
2022/04/29 01:02:59;;;;;;;12.77;6.47;;;;;;;8.50;88.66;102839.94;6336528;22;20006;-76
2022/04/29 01:05:25;;;;;;;12.35;6.65;;;;;;;8.44;88.70;102836.03;6329742;22;20014;-76
2022/04/29 01:07:51;;;;;;;14.80;6.65;;;;;;;8.38;89.16;102840.16;6336396;22;20437;-76
2022/04/29 01:10:20;;;;;;;13.50;7.28;;;;;;;8.35;89.60;102840.44;6330129;22;20090;-76
2022/04/29 01:12:49;;;;;;;11.27;6.30;;;;;;;8.32;89.57;102835.38;6336291;22;20003;-76
2022/04/29 01:15:17;;;;;;;14.82;6.68;;;;;;;8.32;89.64;102829.19;6308795;22;20011;-75
2022/04/29 01:17:45;;;;;;;15.85;6.70;;;;;;;8.26;90.22;102830.63;6329264;22;20011;-76
2022/04/29 01:20:13;;;;;;;11.25;5.72;;;;;;;8.27;90.13;102827.00;6336336;22;20390;-76
2022/04/29 01:22:38;;;;;;;15.05;7.82;;;;;;;8.15;91.05;102811.38;6308428;22;20056;-75
2022/04/29 01:25:04;;;;;;;16.02;6.68;;;;;;;8.11;91.26;102810.00;6329501;22;20022;-76
2022/04/29 01:27:30;;;;;;;15.95;7.40;;;;;;;8.06;91.67;102819.25;6308341;22;20423;-76
2022/04/29 01:33:21;;;;;;;11.30;6.55;;;;;;;7.91;92.17;102787.94;6336442;22;20328;-75
2022/04/29 01:35:46;;;;;;;11.52;6.38;;;;;;;7.90;92.48;102796.91;6336103;22;20011;-76
2022/04/29 01:38:11;;;;;;;13.90;7.05;;;;;;;7.82;92.78;102786.19;6329350;22;20017;-76
2022/04/29 01:40:37;;;;;;;16.13;6.97;;;;;;;7.82;92.56;102794.16;6336150;22;20014;-76
2022/04/29 01:43:02;;;;;;;14.77;6.17;;;;;;;7.82;92.76;102799.50;6329118;22;20015;-76
2022/04/29 01:45:28;;;;;;;13.38;6.50;;;;;;;7.77;93.19;102797.25;6336159;22;20296;-76
2022/04/29 01:47:53;;;;;;;14.52;6.93;;;;;;;7.75;92.75;102804.53;6336031;22;20027;-76
2022/04/29 01:50:18;;;;;;;12.25;6.22;;;;;;;7.69;92.57;102790.00;6329080;22;20011;-75
2022/04/29 01:52:44;;;;;;;15.88;7.40;;;;;;;7.69;93.46;102797.16;6335965;22;20034;-76
2022/04/29 01:55:09;;;;;;;12.40;7.10;;;;;;;7.64;93.00;102781.63;6308493;22;20007;-76
2022/04/29 01:57:35;;;;;;;12.07;6.77;;;;;;;7.67;93.40;102788.47;6329745;22;20242;-76
2022/04/29 02:00:00;;;;;;;14.13;7.05;;;;;;;7.68;93.46;102790.16;6337500;22;20678;-76
2022/04/29 02:02:26;;;;;;;10.95;7.20;;;;;;;7.64;92.89;102789.59;6330648;22;20014;-76
2022/04/29 02:04:51;;;;;;;10.50;7.18;;;;;;;7.60;92.91;102785.56;6309818;22;20446;-76
2022/04/29 02:07:16;;;;;;;12.15;6.78;;;;;;;7.58;93.37;102792.03;6337517;22;20436;-76
2022/04/29 02:09:42;;;;;;;12.02;6.90;;;;;;;7.57;93.49;102801.84;6330385;22;20018;-76
2022/04/29 02:12:07;;;;;;;12.60;6.78;;;;;;;7.58;93.08;102800.84;6309626;22;20093;-76
2022/04/29 02:14:39;;;;;;;14.57;6.50;;;;;;;7.57;93.08;102801.00;6333613;22;20037;-76
2022/04/29 02:17:06;;;;;;;12.45;7.32;;;;;;;7.52;93.58;102797.91;6335525;22;20011;-76
2022/04/29 02:19:33;;;;;;;13.30;7.00;;;;;;;7.45;93.92;102792.34;6337253;22;20007;-76
2022/04/29 02:21:59;;;;;;;15.82;6.75;;;;;;;7.47;94.02;102793.88;6330537;22;20443;-76
2022/04/29 02:24:25;;;;;;;15.75;7.25;;;;;;;7.40;94.03;102778.63;6337415;22;20010;-76
2022/04/29 02:26:50;;;;;;;13.18;7.07;;;;;;;7.46;94.57;102788.69;6330262;22;20360;-76
2022/04/29 02:29:15;;;;;;;16.33;7.25;;;;;;;7.44;94.08;102786.16;6309609;22;20002;-76
2022/04/29 02:31:41;;;;;;;13.15;8.02;;;;;;;7.41;94.28;102783.81;6337246;22;20385;-76
2022/04/29 02:37:28;;;;;;;11.05;6.97;;;;;;;7.44;93.88;102783.50;6337396;22;20071;-76
2022/04/29 02:39:53;;;;;;;11.68;6.65;;;;;;;7.41;93.72;102778.47;6330430;22;20074;-76
2022/04/29 02:42:19;;;;;;;15.63;6.95;;;;;;;7.40;94.08;102778.63;6309446;22;19999;-76
2022/04/29 02:44:45;;;;;;;12.65;7.20;;;;;;;7.39;94.07;102772.47;6337245;22;20309;-76
2022/04/29 02:47:10;;;;;;;12.05;7.35;;;;;;;7.35;94.22;102770.25;6330323;22;20523;-76
2022/04/29 02:49:38;;;;;;;12.70;6.85;;;;;;;7.38;94.21;102780.59;6337448;22;20487;-76
2022/04/29 02:52:07;;;;;;;12.98;7.85;;;;;;;7.35;94.52;102786.22;6330167;22;20132;-76
2022/04/29 02:54:32;;;;;;;16.42;6.90;;;;;;;7.29;94.42;102782.31;6309558;22;20007;-76
2022/04/29 02:56:58;;;;;;;11.85;6.95;;;;;;;7.36;94.06;102785.22;6337158;22;20007;-76
2022/04/29 02:59:23;;;;;;;14.40;8.13;;;;;;;7.33;94.24;102775.72;6330386;22;20011;-76
2022/04/29 03:05:10;;;;;;;16.27;7.10;;;;;;;7.29;94.64;102771.66;6337359;22;20429;-76
2022/04/29 03:07:35;;;;;;;12.77;7.50;;;;;;;7.29;94.42;102765.50;6336939;22;20003;-76
2022/04/29 03:10:00;;;;;;;13.52;6.97;;;;;;;7.26;94.62;102769.31;6330750;22;20015;-76
2022/04/29 03:12:26;;;;;;;13.05;7.45;;;;;;;7.26;94.88;102761.31;6336699;22;20003;-76
2022/04/29 03:14:51;;;;;;;15.63;7.93;;;;;;;7.27;95.34;102763.00;6337112;22;19998;-76
2022/04/29 03:20:40;;;;;;;19.20;8.85;;;;;;;7.18;96.37;102745.22;6337236;22;20136;-76
2022/04/29 03:23:06;;;;;;;13.38;8.90;;;;;;;7.18;96.67;102747.03;6330205;22;20064;-76
2022/04/29 03:25:32;;;;;;;14.77;7.95;;;;;;;7.16;96.83;102747.19;6336976;22;20324;-76
2022/04/29 03:27:58;;;;;;;13.90;8.60;;;;;;;7.13;96.32;102740.34;6330345;22;20015;-76
2022/04/29 03:30:23;;;;;;;12.35;7.97;;;;;;;7.13;96.31;102744.81;6309168;22;20011;-76
2022/04/29 03:32:58;;;;;;;17.20;8.38;;;;;;;7.09;97.95;102762.91;6309496;22;20022;-76
2022/04/29 03:35:24;;;;;;;16.83;8.93;;;;;;;7.05;97.20;102766.81;6329906;22;20003;-76
2022/04/29 03:37:51;;;;;;;14.23;7.40;;;;;;;7.04;97.00;102762.50;6309313;22;20018;-75
2022/04/29 03:40:21;;;;;;;14.68;8.07;;;;;;;7.01;97.52;102768.09;6329954;22;20467;-76
2022/04/29 03:42:54;;;;;;;15.18;8.05;;;;;;;6.95;96.80;102766.03;6336981;22;20005;-76
2022/04/29 03:45:22;;;;;;;18.30;8.20;;;;;;;6.96;97.32;102777.50;6336883;22;20007;-76
2022/04/29 03:47:47;;;;;;;14.52;7.85;;;;;;;6.94;97.43;102776.78;6329753;22;20018;-76
2022/04/29 03:50:13;;;;;;;12.82;8.43;;;;;;;6.95;97.23;102766.03;6336933;22;20007;-76
2022/04/29 03:52:50;;;;;;;12.00;7.53;;;;;;;6.91;97.05;102751.31;6302519;22;20043;-76
2022/04/29 03:55:18;;;;;;;14.98;8.52;;;;;;;6.96;97.61;102756.22;6336855;22;20025;-76
2022/04/29 03:57:43;;;;;;;15.35;8.75;;;;;;;6.88;98.06;102746.28;6336840;22;20434;-76
2022/04/29 04:00:10;;;;;;;16.60;8.73;;;;;;;6.90;97.75;102744.31;6302710;22;20026;-75
2022/04/29 04:02:35;;;;;;;15.52;8.52;;;;;;;6.90;97.37;102748.78;6336822;22;20038;-76
2022/04/29 04:08:22;;;;;;;19.88;9.15;;;;;;;6.84;97.26;102759.00;6336530;22;20510;-76
2022/04/29 04:10:47;;;;;;;16.10;8.32;;;;;;;6.85;98.05;102759.84;6331316;22;20030;-76
2022/04/29 04:13:14;;;;;;;19.85;9.25;;;;;;;6.85;97.83;102759.84;6306131;22;20323;-76
2022/04/29 04:15:39;;;;;;;17.48;8.50;;;;;;;6.89;98.23;102758.59;6336740;22;20002;-76
2022/04/29 04:18:05;;;;;;;14.23;9.40;;;;;;;6.83;98.53;102753.84;6328516;22;20007;-75
2022/04/29 04:20:30;;;;;;;16.47;8.07;;;;;;;6.87;97.97;102749.91;6336066;22;20424;-76
2022/04/29 04:22:55;;;;;;;17.00;8.98;;;;;;;6.89;97.61;102753.25;6329767;22;20386;-75
2022/04/29 04:25:21;;;;;;;14.90;9.50;;;;;;;6.84;98.67;102736.91;6336873;22;20473;-76
2022/04/29 04:27:46;;;;;;;18.23;9.45;;;;;;;6.82;98.37;102742.38;6336617;22;20244;-75
2022/04/29 04:30:12;;;;;;;17.48;9.02;;;;;;;6.86;98.70;102744.75;6302476;22;20052;-76
2022/04/29 04:32:38;;;;;;;16.70;9.25;;;;;;;6.84;98.73;102743.06;6336539;22;20027;-76
2022/04/29 04:41:48;;;;;;;14.05;8.73;;;;;;;6.88;97.53;102740.94;6336648;22;20377;-76
2022/04/29 04:47:35;;;;;;;18.40;8.90;;;;;;;6.89;97.33;102741.78;6336318;22;20021;-76
2022/04/29 04:50:00;;;;;;;20.90;8.98;;;;;;;6.93;97.58;102749.34;6308761;22;20007;-76
2022/04/29 04:52:25;;;;;;;19.58;9.75;;;;;;;6.95;97.61;102751.88;6309030;22;20030;-76
2022/04/29 04:54:51;;;;;;;16.85;10.07;;;;;;;6.91;97.83;102745.97;6329582;22;20015;-76
2022/04/29 04:57:16;;;;;;;22.50;10.10;;;;;;;6.91;97.83;102724.72;6308721;22;19998;-76
2022/04/29 04:59:41;;;;;;;18.30;9.50;;;;;;;6.91;97.97;102735.34;6333128;22;20471;-77
2022/04/29 05:02:07;;;;;;;21.23;9.70;;;;;;;6.96;98.48;102737.59;6332585;22;20019;-76
2022/04/29 05:04:32;;;;;;;21.35;10.13;;;;;;;6.96;98.47;102730.47;6336195;22;20040;-76
2022/04/29 05:06:57;;;;;;;18.33;9.73;;;;;;;6.96;98.03;102733.13;6329353;22;20326;-77
2022/04/29 05:09:23;;;;;;;20.67;10.10;;;;;;;7.06;97.72;102739.25;6308170;22;20131;-76
2022/04/29 05:11:48;;;;;;;21.90;9.98;;;;;;;7.03;97.67;102725.41;6329223;22;20015;-76
2022/04/29 05:14:13;;;;;;;19.05;9.07;;;;;;;7.10;97.32;102737.97;6308463;22;20026;-76
2022/04/29 05:16:38;;;;;;;18.80;10.38;;;;;;;7.13;96.87;102739.50;6336247;22;20010;-76
2022/04/29 05:19:04;;;;;;;17.77;10.10;;;;;;;7.12;97.14;102743.97;6301664;22;20035;-76
2022/04/29 05:21:29;;;;;;;17.73;9.98;;;;;;;7.14;97.47;102741.19;6336043;22;20006;-76
2022/04/29 05:23:54;;;;;;;21.77;9.85;;;;;;;7.15;97.46;102743.69;6329325;22;20010;-77
2022/04/29 05:26:20;;;;;;;22.13;11.48;;;;;;;7.17;97.38;102746.19;6336163;22;19999;-76
2022/04/29 05:28:45;;;;;;;19.63;10.85;;;;;;;7.13;97.05;102734.19;6336172;22;20034;-76
2022/04/29 05:31:10;;;;;;;18.13;10.68;;;;;;;7.24;97.08;102751.81;6302280;22;20081;-76
2022/04/29 05:33:37;;;;;;;17.45;9.88;;;;;;;7.27;96.65;102744.38;6337388;22;20003;-76
2022/04/29 05:42:14;;;;;;;16.15;10.30;;;;;;;7.45;95.78;102744.44;6330805;22;20025;-76
2022/04/29 05:44:39;;;;;;;20.67;11.43;;;;;;;7.53;95.56;102741.06;6337646;22;20006;-76
2022/04/29 05:47:05;;;;;;;17.15;9.93;;;;;;;7.55;95.00;102744.41;6330418;22;20011;-76
2022/04/29 05:49:30;;;;;;;21.60;10.20;;;;;;;7.60;95.04;102748.28;6309750;22;20055;-76
2022/04/29 05:51:59;;;;;;;23.13;11.05;;;;;;;7.62;94.97;102741.00;6337397;22;20030;-77
2022/04/29 05:54:24;;;;;;;18.00;10.30;;;;;;;7.71;94.67;102755.25;6330417;22;20554;-76
2022/04/29 05:56:49;;;;;;;21.90;10.65;;;;;;;7.72;94.14;102751.59;6337648;22;20034;-76
2022/04/29 05:59:14;;;;;;;18.53;10.33;;;;;;;7.76;94.66;102761.78;6330578;22;20332;-76
2022/04/29 06:01:40;;;;;;;20.65;10.18;;;;;;;7.80;93.50;102765.00;6337415;22;20260;-76
2022/04/29 06:07:27;;;;;;;23.27;10.18;;;;;;;7.99;92.97;102759.56;6337390;22;20025;-77
2022/04/29 06:09:52;;;;;;;16.83;10.45;;;;;;;8.11;93.13;102768.19;6309641;22;20007;-77
2022/04/29 06:12:17;;;;;;;23.77;10.32;;;;;;;8.20;92.17;102767.28;6303083;22;20347;-77
2022/04/29 06:18:04;;;;;;;21.48;10.40;;;;;;;8.43;90.66;102774.88;6337980;22;20443;-77
2022/04/29 06:20:29;;;;;;;17.83;10.45;;;;;;;8.50;90.57;102767.94;6337857;22;20035;-77
2022/04/29 06:22:55;;;;;;;19.97;10.17;;;;;;;8.46;90.02;102755.91;6331188;22;20018;-77
2022/04/29 06:25:21;;;;;;;19.60;10.02;;;;;;;8.56;89.37;102770.00;6310435;22;20769;-77
2022/04/29 06:31:08;;;;;;;22.00;9.93;;;;;;;8.78;88.66;102776.69;6338142;22;20501;-76
2022/04/29 06:33:34;;;;;;;24.83;11.15;;;;;;;8.89;88.87;102776.44;6338010;22;19999;-77
2022/04/29 06:36:01;;;;;;;24.02;10.48;;;;;;;8.95;88.03;102776.63;6331167;22;20006;-76
2022/04/29 06:38:27;;;;;;;28.73;10.88;;;;;;;9.00;87.03;102781.53;6310037;22;20003;-77
2022/04/29 06:40:53;;;;;;;41.72;12.07;;;;;;;9.04;87.68;102779.38;6303433;22;20015;-77
2022/04/29 06:46:39;;;;;;;18.48;10.60;;;;;;;9.22;86.59;102772.16;6330926;22;20476;-76
2022/04/29 06:52:26;;;;;;;21.48;9.98;;;;;;;9.39;85.72;102771.25;6337979;22;20022;-76
2022/04/29 06:54:52;;;;;;;18.48;10.52;;;;;;;9.59;83.89;102791.41;6337704;22;20003;-76
2022/04/29 06:57:17;;;;;;;21.63;10.15;;;;;;;9.71;84.33;102788.44;6310055;22;20438;-76
2022/04/29 07:03:04;;;;;;;22.23;10.50;;;;;;;10.29;81.94;102793.00;6337824;22;20032;-77
2022/04/29 07:05:31;;;;;;;21.40;10.30;;;;;;;10.59;80.73;102796.91;6330810;22;20010;-77
2022/04/29 07:07:57;;;;;;;19.75;10.68;;;;;;;10.86;80.02;102797.41;6337772;22;20067;-77
2022/04/29 07:10:23;;;;;;;21.75;10.80;;;;;;;11.17;77.91;102788.69;6303192;22;20423;-77
2022/04/29 07:12:48;;;;;;;20.30;10.55;;;;;;;11.51;75.42;102796.47;6310224;22;20158;-77
2022/04/29 07:15:14;;;;;;;20.00;9.93;;;;;;;11.77;75.09;102789.00;6337761;22;20003;-77
2022/04/29 07:21:02;;;;;;;19.38;10.25;;;;;;;12.62;69.08;102790.91;6337896;22;20056;-76
2022/04/29 07:23:28;;;;;;;17.67;10.18;;;;;;;12.96;68.77;102785.06;6303556;22;20087;-77
2022/04/29 07:25:53;;;;;;;20.65;10.18;;;;;;;13.30;66.76;102788.13;6337604;22;20042;-77
2022/04/29 07:28:18;;;;;;;18.43;9.50;;;;;;;13.80;65.76;102783.84;6330663;22;20015;-76
2022/04/29 07:34:05;;;;;;;21.90;10.32;;;;;;;15.23;60.05;102796.47;6337810;22;20022;-77
2022/04/29 07:42:36;;;;;;;14.45;9.85;;;;;;;16.24;55.66;102790.34;6337978;22;20017;-77
2022/04/29 07:48:23;;;;;;;20.88;10.82;;;;;;;14.92;58.66;102783.38;6337344;22;20017;-77
2022/04/29 07:50:48;;;;;;;22.27;11.73;;;;;;;15.04;59.58;102785.38;6330947;22;20054;-77
2022/04/29 07:56:35;;;;;;;20.65;10.80;;;;;;;16.94;53.08;102786.31;6332497;22;20033;-77
2022/04/29 07:59:01;;;;;;;21.00;10.25;;;;;;;17.33;50.71;102785.41;6308095;22;20427;-77
2022/04/29 08:01:27;;;;;;;20.88;10.88;;;;;;;17.49;50.30;102778.72;6337421;22;20010;-76
2022/04/29 08:03:56;;;;;;;23.13;11.00;;;;;;;17.39;50.29;102791.03;6330583;22;20377;-77
2022/04/29 08:06:22;;;;;;;21.60;10.15;;;;;;;17.43;50.33;102794.97;6337485;22;20070;-77
2022/04/29 08:08:48;;;;;;;18.52;11.10;;;;;;;17.29;50.64;102800.41;6330269;22;20043;-77
2022/04/29 08:14:35;;;;;;;19.30;11.00;;;;;;;16.91;51.19;102804.81;6330906;22;20091;-77
2022/04/29 08:17:02;;;;;;;19.17;11.07;;;;;;;16.63;52.00;102799.56;6337558;22;20023;-77
2022/04/29 08:22:49;;;;;;;16.80;10.05;;;;;;;15.90;53.88;102796.69;6337564;22;20046;-77
2022/04/29 08:25:17;;;;;;;18.65;11.23;;;;;;;15.82;56.34;102802.22;6309298;22;20002;-76
2022/04/29 08:27:42;;;;;;;22.50;10.88;;;;;;;15.93;56.14;102798.97;6330288;22;20007;-77
2022/04/29 08:33:31;;;;;;;19.92;11.02;;;;;;;16.00;54.63;102799.81;6337532;22;20018;-77
2022/04/29 08:35:56;;;;;;;23.42;10.68;;;;;;;15.78;56.04;102812.59;6337140;22;19999;-77
2022/04/29 08:38:21;;;;;;;18.83;10.30;;;;;;;15.63;56.70;102803.81;6330308;22;20333;-77
2022/04/29 08:40:47;;;;;;;18.65;10.80;;;;;;;15.43;56.57;102802.81;6337350;22;20002;-78
2022/04/29 08:43:15;;;;;;;18.73;11.18;;;;;;;15.27;57.49;102806.66;6309646;22;20006;-77
2022/04/29 08:49:02;;;;;;;21.15;11.60;;;;;;;15.08;59.35;102810.06;6337183;22;20014;-77
2022/04/29 08:51:29;;;;;;;19.83;10.77;;;;;;;14.91;58.83;102795.19;6330280;22;20006;-77
2022/04/29 08:53:54;;;;;;;26.95;11.38;;;;;;;14.96;60.07;102790.88;6337000;22;20010;-77
2022/04/29 08:59:44;;;;;;;22.45;10.52;;;;;;;15.17;58.33;102768.44;6337134;22;20375;-77
2022/04/29 09:02:09;;;;;;;15.77;10.27;;;;;;;15.40;57.65;102798.66;6302905;22;20044;-77
2022/04/29 09:08:01;;;;;;;20.55;10.73;;;;;;;15.66;57.20;102791.78;6338682;22;20036;-77
2022/04/29 09:10:35;;;;;;;18.13;10.80;;;;;;;15.71;56.98;102789.31;6336891;22;20025;-77
2022/04/29 09:13:24;;;;;;;21.08;10.55;;;;;;;15.74;57.84;102784.34;6335788;22;20013;-77
2022/04/29 09:19:36;;;;;;;21.60;11.45;;;;;;;15.48;58.63;102800.38;6332433;22;20088;-77
2022/04/29 09:22:04;;;;;;;19.15;10.60;;;;;;;15.19;59.28;102796.84;6338284;22;20003;-78
2022/04/29 09:27:55;;;;;;;23.88;10.32;;;;;;;15.09;60.75;102787.47;6338652;22;20128;-77
2022/04/29 09:30:32;;;;;;;16.17;10.52;;;;;;;15.54;59.32;102806.81;6310474;22;20011;-77
2022/04/29 09:36:25;;;;;;;26.90;10.85;;;;;;;16.52;55.19;102810.97;6338282;22;20018;-77
2022/04/29 09:41:35;;;;;;;16.02;10.40;;;;;;;16.68;55.55;102797.94;6338335;22;20102;-77
2022/04/29 09:44:01;;;;;;;22.52;10.95;;;;;;;16.50;55.16;102802.25;6331397;22;20050;-77
2022/04/29 09:46:26;;;;;;;24.30;11.90;;;;;;;16.28;56.78;102806.97;6338077;22;20021;-77
2022/04/29 09:49:06;;;;;;;17.38;11.45;;;;;;;15.97;57.83;102811.03;6330934;22;20069;-77
2022/04/29 09:51:52;;;;;;;21.02;11.23;;;;;;;15.53;58.80;102806.00;6338111;22;20127;-77
2022/04/29 09:57:56;;;;;;;18.90;9.90;;;;;;;15.21;60.07;102799.34;6338508;22;20438;-78
2022/04/29 10:00:22;;;;;;;19.30;10.98;;;;;;;15.04;58.89;102804.22;6331718;22;20014;-77
2022/04/29 10:06:12;;;;;;;17.20;10.18;;;;;;;15.21;60.60;102791.28;6334629;22;20025;-77
2022/04/29 10:08:37;;;;;;;18.48;10.15;;;;;;;15.25;59.65;102789.00;6307561;22;20437;-77
2022/04/29 10:11:05;;;;;;;20.40;11.13;;;;;;;15.21;60.32;102793.13;6338054;22;20002;-77
2022/04/29 10:13:32;;;;;;;26.20;11.52;;;;;;;15.03;60.99;102780.97;6331245;22;20069;-77
2022/04/29 10:15:58;;;;;;;16.60;11.55;;;;;;;15.02;60.83;102787.38;6337945;22;20006;-78
2022/04/29 10:24:34;;;;;;;19.77;11.27;;;;;;;15.06;60.47;102786.00;6337813;22;20331;-77
2022/04/29 10:26:59;;;;;;;21.63;11.40;;;;;;;15.08;59.36;102792.03;6310300;22;20014;-77
2022/04/29 10:29:25;;;;;;;20.47;12.07;;;;;;;15.01;59.69;102785.72;6336657;22;20112;-77
2022/04/29 10:32:04;;;;;;;17.58;10.27;;;;;;;15.03;59.47;102778.28;6332358;22;20724;-77
2022/04/29 10:38:31;;;;;;;22.02;11.00;;;;;;;15.07;60.61;102776.06;6337963;22;20029;-77
2022/04/29 10:41:21;;;;;;;20.65;10.82;;;;;;;15.08;61.84;102781.25;6337704;22;20003;-77
2022/04/29 10:50:54;;;;;;;16.35;9.07;;;;;;;15.30;60.44;102773.06;6337611;22;20339;-77
2022/04/29 10:53:22;;;;;;;20.88;10.27;;;;;;;15.41;60.50;102769.84;6330870;22;20011;-76
2022/04/29 10:55:48;;;;;;;21.98;10.10;;;;;;;15.59;60.21;102764.78;6310061;22;20007;-76
2022/04/29 11:01:36;;;;;;;16.45;9.35;;;;;;;15.73;59.38;102761.13;6337634;22;20029;-76
2022/04/29 11:04:05;;;;;;;17.55;9.80;;;;;;;15.69;59.00;102759.84;6309969;22;20014;-76
2022/04/29 11:06:38;;;;;;;15.73;9.20;;;;;;;15.61;58.06;102757.34;6330949;22;20010;-76
2022/04/29 11:09:23;;;;;;;20.73;10.32;;;;;;;15.49;59.13;102770.50;6337401;22;20009;-76
2022/04/29 11:11:48;;;;;;;18.58;10.20;;;;;;;15.30;59.73;102765.00;6330737;22;20406;-77
2022/04/29 11:17:37;;;;;;;17.52;9.55;;;;;;;15.44;60.25;102758.66;6337548;22;20465;-77
2022/04/29 11:20:24;;;;;;;16.75;9.48;;;;;;;15.46;59.77;102759.28;6337469;22;20009;-76
2022/04/29 11:25:49;;;;;;;21.80;10.30;;;;;;;15.17;60.71;102755.81;6337681;22;20496;-76
2022/04/29 11:28:16;;;;;;;17.23;10.75;;;;;;;15.25;60.25;102745.88;6303804;22;20015;-77
2022/04/29 11:34:08;;;;;;;24.05;9.35;;;;;;;15.69;59.16;102759.84;6333031;22;20111;-76
2022/04/29 11:39:56;;;;;;;14.27;9.25;;;;;;;16.07;56.73;102745.88;6337467;22;20018;-76
2022/04/29 11:42:22;;;;;;;20.00;8.52;;;;;;;16.33;55.76;102745.09;6337440;22;20099;-76
2022/04/29 11:44:49;;;;;;;13.10;8.43;;;;;;;16.50;53.58;102729.34;6337423;22;20428;-76
2022/04/29 11:50:37;;;;;;;18.33;8.52;;;;;;;17.19;52.75;102742.41;6337401;22;20041;-75
2022/04/29 11:53:10;;;;;;;16.35;8.15;;;;;;;17.61;51.31;102733.72;6303023;22;20007;-77
2022/04/29 11:55:37;;;;;;;13.70;7.53;;;;;;;18.02;49.20;102742.53;6337512;22;20030;-76
2022/04/29 12:01:27;;;;;;;19.17;8.15;;;;;;;19.85;46.56;102730.19;6337267;22;20155;-75
2022/04/29 12:03:52;;;;;;;15.35;7.90;;;;;;;20.02;42.83;102730.38;6330413;22;20367;-76
2022/04/29 12:09:39;;;;;;;14.13;7.78;;;;;;;19.58;43.84;102732.41;6337521;22;20288;-77
2022/04/29 12:15:31;;;;;;;13.27;6.60;;;;;;;19.17;43.09;102727.66;6337387;22;20609;-77
2022/04/29 12:18:01;;;;;;;14.65;7.97;;;;;;;19.05;44.47;102724.00;6337488;22;20078;-75
2022/04/29 12:23:49;;;;;;;14.70;6.88;;;;;;;18.87;42.95;102727.53;6337635;22;20322;-76
2022/04/29 12:29:39;;;;;;;13.05;7.68;;;;;;;19.04;42.65;102719.66;6337249;22;20022;-76
2022/04/29 12:39:03;;;;;;;13.07;6.68;;;;;;;19.17;41.50;102717.63;6337179;22;20017;-77
2022/04/29 12:41:29;;;;;;;13.52;8.13;;;;;;;19.07;41.71;102711.06;6336599;22;20377;-76
2022/04/29 12:44:07;;;;;;;16.83;7.10;;;;;;;19.54;43.30;102716.81;6309314;22;20003;-77
2022/04/29 12:46:32;;;;;;;13.52;7.78;;;;;;;19.80;41.04;102713.78;6302883;22;20007;-76
2022/04/29 12:52:19;;;;;;;11.18;7.93;;;;;;;20.08;41.23;102714.00;6336864;22;20278;-77
2022/04/29 13:01:39;;;;;;;14.18;7.78;;;;;;;20.68;41.37;102710.34;6336950;22;20454;-76
2022/04/29 13:07:26;;;;;;;12.57;7.80;;;;;;;21.31;39.96;102696.00;6337050;22;20045;-77
2022/04/29 13:09:51;;;;;;;17.40;8.68;;;;;;;21.13;39.87;102705.13;6329895;22;20007;-78
2022/04/29 13:12:17;;;;;;;14.90;9.33;;;;;;;20.81;39.04;102696.50;6337134;22;20005;-77
2022/04/29 13:14:43;;;;;;;12.60;7.93;;;;;;;20.95;39.51;102688.94;6331384;22;20238;-78
2022/04/29 13:23:57;;;;;;;15.13;8.77;;;;;;;22.01;37.70;102684.84;6336943;22;20013;-77
2022/04/29 13:29:44;;;;;;;11.52;9.18;;;;;;;20.80;40.95;102680.41;6336614;22;20025;-78
2022/04/29 13:35:31;;;;;;;12.93;8.63;;;;;;;20.21;41.27;102672.19;6336760;22;20231;-79
2022/04/29 13:41:22;;;;;;;14.30;8.32;;;;;;;19.34;44.34;102663.59;6336714;22;20362;-84
2022/04/29 13:43:48;;;;;;;15.10;8.98;;;;;;;19.16;43.63;102660.91;6308692;22;20408;-85
2022/04/29 13:49:35;;;;;;;20.50;9.93;;;;;;;18.27;46.88;102678.44;6336468;22;20072;-82
2022/04/29 13:54:45;;;;;;;13.63;8.50;;;;;;;18.37;45.34;102665.22;6337866;22;20072;-78
2022/04/29 13:57:12;;;;;;;13.32;9.02;;;;;;;18.49;45.85;102660.72;6331679;22;20007;-78
2022/04/29 14:06:43;;;;;;;14.82;8.82;;;;;;;19.03;45.49;102655.63;6337883;22;20073;-81
2022/04/29 14:09:08;;;;;;;13.15;8.68;;;;;;;18.76;43.47;102649.66;6338220;22;20447;-81
2022/04/29 14:11:34;;;;;;;15.33;9.27;;;;;;;18.60;44.16;102656.47;6303607;22;20043;-77
2022/04/29 14:17:21;;;;;;;12.43;8.35;;;;;;;18.30;45.99;102640.06;6337707;22;20327;-77
2022/04/29 14:23:11;;;;;;;13.77;8.40;;;;;;;18.03;46.08;102627.78;6337756;22;20049;-80
2022/04/29 14:29:01;;;;;;;15.50;8.55;;;;;;;17.82;46.03;102618.13;6337826;22;20469;-82
2022/04/29 14:38:24;;;;;;;11.85;8.60;;;;;;;18.24;44.63;102639.06;6337070;22;20443;-81
2022/04/29 14:41:05;;;;;;;14.52;9.32;;;;;;;17.93;46.34;102622.88;6301243;22;20105;-81
2022/04/29 14:46:53;;;;;;;12.45;7.63;;;;;;;17.92;45.85;102599.53;6337029;22;20025;-82
2022/04/29 14:52:41;;;;;;;11.68;7.88;;;;;;;18.26;45.17;102617.19;6330149;22;20021;-79
2022/04/29 14:58:27;;;;;;;11.70;7.82;;;;;;;18.63;45.03;102626.25;6337540;22;20021;-80
2022/04/29 15:04:15;;;;;;;10.70;7.40;;;;;;;18.67;44.63;102613.91;6337174;22;20285;-81
2022/04/29 15:16:09;;;;;;;12.50;7.55;;;;;;;18.12;43.82;102605.63;6337840;22;20049;-79
2022/04/29 15:21:56;;;;;;;10.88;7.82;;;;;;;17.89;43.68;102617.03;6337806;22;20022;-80
2022/04/29 15:27:43;;;;;;;12.20;7.65;;;;;;;17.92;43.75;102629.28;6336991;22;20326;-81
2022/04/29 15:33:30;;;;;;;13.40;7.57;;;;;;;17.92;44.70;102637.41;6337028;22;20033;-82
2022/04/29 15:35:56;;;;;;;11.85;7.40;;;;;;;17.97;44.50;102628.66;6330202;22;20010;-81
2022/04/29 15:41:44;;;;;;;12.15;8.00;;;;;;;17.88;44.03;102631.63;6331123;22;20379;-80
2022/04/29 15:47:32;;;;;;;11.02;8.52;;;;;;;17.84;45.16;102626.88;6336595;22;20017;-80
2022/04/29 15:53:19;;;;;;;13.35;8.90;;;;;;;17.70;45.18;102617.19;6337465;22;20063;-78
2022/04/29 15:59:06;;;;;;;21.92;9.20;;;;;;;17.01;48.04;102616.00;6337034;22;20060;-81
2022/04/29 16:04:53;;;;;;;13.93;9.30;;;;;;;17.20;46.96;102611.59;6337613;22;20140;-82
2022/04/29 16:10:40;;;;;;;15.77;9.10;;;;;;;17.19;48.17;102612.63;6337188;22;20260;-81
2022/04/29 16:16:27;;;;;;;11.75;9.23;;;;;;;16.99;48.56;102613.53;6336371;22;20049;-83
2022/04/29 16:25:35;;;;;;;12.18;8.70;;;;;;;17.00;49.96;102607.06;6337526;22;20022;-81
2022/04/29 16:28:22;;;;;;;12.52;8.48;;;;;;;17.00;48.63;102609.78;6337146;22;20021;-80